• Join FlightAware (Why Join?)
  • Login
  • US Flag 
04:00PM EDT


 

Airport Tracker/Info


-or-


 

Live Flight TrackerFlight Track Log ✈ SKW4542 ✈ 23-Apr-2013 ✈ KIDA - KSLC

Flight Track Log - Related Links

Times and Time Zones

All times are in EDT time to prevent confusion due to time zone crossing. See the SKW4542 flight status page for this flight to view local times or setup timezone preferences in your user account.

Time Position Orientation Groundspeed Altitude Reporting Facility
EDT Latitude Longitude Course Direction KTS MPH feet Rate Location/Type
08:31PM 43.4028 -112.1733 214° Southwest 234 269 9,200  Level Salt Lake Center
08:32PM 43.2787 -112.0624 213° Southwest  Level Estimated
08:33PM 43.2601 -112.1670 256° West  Level FlightAware Approximate
08:33PM 43.3378 -112.2336 214° Southwest 275 316 11,700  Level Salt Lake Center
08:34PM 43.1819 -112.1608 213° Southwest  Level Estimated
08:34PM 43.2517 -112.3114 213° Southwest 312 359 14,500  Level Salt Lake Center
08:35PM 43.1521 -112.2602 248° West  Level FlightAware Approximate
08:35PM 43.1747 -112.3800 213° Southwest 331 381 17,000  Level Salt Lake Center
08:36PM 43.0740 -112.2505 214° Southwest  Level Estimated
08:36PM 43.0825 -112.4569 211° Southwest 345 397 19,200  Level Salt Lake Center
08:37PM 43.0025 -112.5286 213° Southwest 354 407 20,500 1,380 Climbing Salt Lake Center
08:38PM 42.9181 -112.6031 213° Southwest 370 426 22,100 1,200 Climbing Salt Lake Center
08:39PM 42.7981 -112.6256 188° South 413 475 23,000 420 Climbing Salt Lake Center
08:40PM 42.6844 -112.5958 169° South 437 503 23,000  Level Salt Lake Center
08:41PM 42.5636 -112.5586 167° South 446 513 23,000  Level Salt Lake Center
08:42PM 42.4422 -112.5242 168° South 446 513 23,000  Level Salt Lake Center
08:43PM 42.2972 -112.4794 167° South 445 512 23,000  Level Salt Lake Center
08:44PM 42.1764 -112.4486 169° South 444 511 23,000 -240 Level Salt Lake Center
08:45PM 42.0589 -112.4586 184° South 423 487 22,600 -840 Descending Salt Lake Center
08:46PM 41.9475 -112.4642 182° South 404 465 21,300 -1,260 Descending Salt Lake Center
08:47PM 41.8378 -112.4711 183° South 397 457 20,100 -1,260 Descending Salt Lake Center
08:48PM 41.6872 -112.4736 181° South 380 437 18,400 -1,080 Descending Salt Lake Center
08:49PM 41.6308 -112.4836 188° South 369 425 17,900 -960 Descending Salt Lake Center
08:50PM 41.5558 -112.4836 180° South 367 422 17,200 -1,080 Descending Salt Lake Center
08:50PM 41.5078 -112.4689 167° South 390 449 16,800 -1,140 Descending Salt Lake Center
08:51PM 41.4550 -112.4172 144° Southeast 399 459 16,100 -1,320 Descending Salt Lake Center
08:51PM 41.4128 -112.3939 157° South 401 461 15,500 -1,380 Descending Salt Lake Center
08:52PM 41.3486 -112.3447 150° Southeast 404 465 14,600 -1,380 Descending Salt Lake Center
08:52PM 41.3139 -112.3244 156° South 403 464 14,100 -1,500 Descending Salt Lake Center
08:53PM 41.2442 -112.2714 150° Southeast 396 456 13,100 -1,140 Descending Salt Lake Center
08:53PM 41.2192 -112.2569 157° South 389 448 13,000 -120 Descending Salt Lake Center
08:54PM 41.1692 -112.2169 149° Southeast 377 434 13,000  Level Salt Lake Center
08:54PM 41.1311 -112.1894 151° Southeast 371 427 13,000 -240 Level Salt Lake Center
08:55PM 41.0719 -112.1475 152° Southeast 368 423 12,800 -600 Descending Salt Lake Center
08:55PM 41.0394 -112.1389 169° South 368 423 12,400 -840 Descending Salt Lake Center
08:56PM 40.9792 -112.1250 170° South 325 374 12,000 -420 Descending Salt Lake Center
08:56PM 40.9406 -112.1175 172° South 289 333 12,000  Level Salt Lake Center
08:57PM 40.9081 -112.1122 173° South 256 295 12,000  Level Salt Lake Center
08:57PM 40.8750 -112.1050 171° South 244 281 12,000 -300 Level Salt Lake Center
08:58PM 40.8461 -112.1047 180° South 226 260 11,700 -840 Descending Salt Lake Center
08:58PM 40.8142 -112.0989 172° South 222 255 11,200 -720 Descending Salt Lake Center
08:59PM 40.7800 -112.0961 176° South 221 254 11,000 -240 Descending Salt Lake Center
08:59PM 40.7544 -112.0914 172° South 217 250 11,000  Level Salt Lake Center
09:00PM 40.7208 -112.0906 179° South 214 246 11,000  Level Salt Lake Center
09:00PM 40.6956 -112.0850 171° South 213 245 11,000 -420 Level Salt Lake Center
09:01PM 40.6594 -112.0858 181° South 214 246 10,600 -900 Descending Salt Lake Center
09:01PM 40.6367 -112.0783 166° South 213 245 10,100 -1,320 Descending Salt Lake Center
09:02PM 40.6028 -112.0711 171° South 219 252 9,300 -1,620 Descending Salt Lake Center
09:02PM 40.5942 -112.0375 109° East 225 259 8,500 -1,380 Descending Salt Lake Center
09:03PM 40.6106 -112.0006 60° Northeast 209 241 7,900 -1,320 Descending Salt Lake Center